sensor_id;sensor_type;location;lat;lon;timestamp;P1;durP1;ratioP1;P2;durP2;ratioP2
6517;SDS011;3292;48.944;9.240;2022-09-25T00:01:58;12.90;;;11.80;;
6517;SDS011;3292;48.944;9.240;2022-09-25T00:04:25;14.77;;;13.27;;
6517;SDS011;3292;48.944;9.240;2022-09-25T00:06:53;14.40;;;13.07;;
6517;SDS011;3292;48.944;9.240;2022-09-25T00:09:21;14.77;;;13.47;;
6517;SDS011;3292;48.944;9.240;2022-09-25T00:11:48;13.00;;;11.77;;
6517;SDS011;3292;48.944;9.240;2022-09-25T00:14:15;14.97;;;13.57;;
6517;SDS011;3292;48.944;9.240;2022-09-25T00:16:42;14.60;;;13.20;;
6517;SDS011;3292;48.944;9.240;2022-09-25T00:19:09;14.10;;;12.80;;
6517;SDS011;3292;48.944;9.240;2022-09-25T00:22:02;14.23;;;12.73;;
6517;SDS011;3292;48.944;9.240;2022-09-25T00:24:30;14.20;;;12.80;;
6517;SDS011;3292;48.944;9.240;2022-09-25T00:26:57;14.00;;;12.60;;
6517;SDS011;3292;48.944;9.240;2022-09-25T00:29:25;15.23;;;13.67;;
6517;SDS011;3292;48.944;9.240;2022-09-25T00:31:54;14.40;;;13.00;;
6517;SDS011;3292;48.944;9.240;2022-09-25T00:34:21;14.67;;;13.37;;
6517;SDS011;3292;48.944;9.240;2022-09-25T00:36:48;13.70;;;12.40;;
6517;SDS011;3292;48.944;9.240;2022-09-25T00:39:15;16.33;;;14.77;;
6517;SDS011;3292;48.944;9.240;2022-09-25T00:41:43;15.80;;;14.20;;
6517;SDS011;3292;48.944;9.240;2022-09-25T00:50:29;16.77;;;15.17;;
6517;SDS011;3292;48.944;9.240;2022-09-25T00:53:03;16.23;;;14.53;;
6517;SDS011;3292;48.944;9.240;2022-09-25T00:55:37;14.20;;;12.80;;
6517;SDS011;3292;48.944;9.240;2022-09-25T00:58:09;16.50;;;14.90;;
6517;SDS011;3292;48.944;9.240;2022-09-25T01:00:42;15.87;;;14.23;;
6517;SDS011;3292;48.944;9.240;2022-09-25T01:03:11;14.73;;;13.40;;
6517;SDS011;3292;48.944;9.240;2022-09-25T01:05:42;16.37;;;14.80;;
6517;SDS011;3292;48.944;9.240;2022-09-25T01:08:12;17.90;;;16.03;;
6517;SDS011;3292;48.944;9.240;2022-09-25T01:10:43;17.53;;;15.83;;
6517;SDS011;3292;48.944;9.240;2022-09-25T01:13:12;17.30;;;15.53;;
6517;SDS011;3292;48.944;9.240;2022-09-25T01:15:43;14.57;;;13.17;;
6517;SDS011;3292;48.944;9.240;2022-09-25T01:18:24;15.07;;;13.67;;
6517;SDS011;3292;48.944;9.240;2022-09-25T01:21:01;14.77;;;13.37;;
6517;SDS011;3292;48.944;9.240;2022-09-25T01:26:48;13.50;;;12.30;;
6517;SDS011;3292;48.944;9.240;2022-09-25T01:29:36;15.93;;;14.33;;
6517;SDS011;3292;48.944;9.240;2022-09-25T01:32:09;17.20;;;15.50;;
6517;SDS011;3292;48.944;9.240;2022-09-25T01:34:47;17.87;;;16.07;;
6517;SDS011;3292;48.944;9.240;2022-09-25T01:37:23;16.80;;;15.20;;
6517;SDS011;3292;48.944;9.240;2022-09-25T01:39:59;17.80;;;16.10;;
6517;SDS011;3292;48.944;9.240;2022-09-25T01:42:36;16.90;;;15.40;;
6517;SDS011;3292;48.944;9.240;2022-09-25T01:45:18;18.47;;;16.67;;
6517;SDS011;3292;48.944;9.240;2022-09-25T01:47:49;18.43;;;16.57;;
6517;SDS011;3292;48.944;9.240;2022-09-25T01:50:19;20.80;;;18.80;;
6517;SDS011;3292;48.944;9.240;2022-09-25T01:52:52;20.30;;;18.20;;
6517;SDS011;3292;48.944;9.240;2022-09-25T01:55:22;19.00;;;17.10;;
6517;SDS011;3292;48.944;9.240;2022-09-25T01:57:54;18.17;;;16.47;;
6517;SDS011;3292;48.944;9.240;2022-09-25T02:00:28;19.07;;;17.37;;
6517;SDS011;3292;48.944;9.240;2022-09-25T02:02:56;19.67;;;17.77;;
6517;SDS011;3292;48.944;9.240;2022-09-25T02:05:26;18.43;;;16.53;;
6517;SDS011;3292;48.944;9.240;2022-09-25T02:07:59;19.67;;;17.63;;
6517;SDS011;3292;48.944;9.240;2022-09-25T02:10:31;20.30;;;18.23;;
6517;SDS011;3292;48.944;9.240;2022-09-25T02:13:04;18.50;;;16.70;;
6517;SDS011;3292;48.944;9.240;2022-09-25T02:15:37;20.10;;;18.13;;
6517;SDS011;3292;48.944;9.240;2022-09-25T02:18:07;19.57;;;17.67;;
6517;SDS011;3292;48.944;9.240;2022-09-25T02:20:55;20.27;;;17.83;;
6517;SDS011;3292;48.944;9.240;2022-09-25T02:23:27;19.17;;;17.17;;
6517;SDS011;3292;48.944;9.240;2022-09-25T02:26:03;19.47;;;17.10;;
6517;SDS011;3292;48.944;9.240;2022-09-25T02:28:32;18.57;;;16.77;;
6517;SDS011;3292;48.944;9.240;2022-09-25T02:31:01;17.93;;;16.13;;
6517;SDS011;3292;48.944;9.240;2022-09-25T02:33:32;17.90;;;16.10;;
6517;SDS011;3292;48.944;9.240;2022-09-25T02:35:59;19.53;;;16.37;;
6517;SDS011;3292;48.944;9.240;2022-09-25T02:38:28;18.77;;;16.87;;
6517;SDS011;3292;48.944;9.240;2022-09-25T02:40:59;18.00;;;16.30;;
6517;SDS011;3292;48.944;9.240;2022-09-25T02:43:35;17.57;;;15.63;;
6517;SDS011;3292;48.944;9.240;2022-09-25T02:46:12;17.80;;;15.90;;
6517;SDS011;3292;48.944;9.240;2022-09-25T02:48:50;16.30;;;14.73;;
6517;SDS011;3292;48.944;9.240;2022-09-25T02:51:24;17.03;;;15.13;;
6517;SDS011;3292;48.944;9.240;2022-09-25T02:54:00;18.40;;;15.23;;
6517;SDS011;3292;48.944;9.240;2022-09-25T02:56:32;16.73;;;15.03;;
6517;SDS011;3292;48.944;9.240;2022-09-25T02:59:03;17.60;;;15.83;;
6517;SDS011;3292;48.944;9.240;2022-09-25T03:01:33;17.10;;;15.37;;
6517;SDS011;3292;48.944;9.240;2022-09-25T03:04:04;17.53;;;15.77;;
6517;SDS011;3292;48.944;9.240;2022-09-25T03:06:31;17.47;;;15.70;;
6517;SDS011;3292;48.944;9.240;2022-09-25T03:08:58;18.23;;;16.47;;
6517;SDS011;3292;48.944;9.240;2022-09-25T03:11:26;18.93;;;16.93;;
6517;SDS011;3292;48.944;9.240;2022-09-25T03:13:54;18.03;;;16.13;;
6517;SDS011;3292;48.944;9.240;2022-09-25T03:16:23;16.20;;;14.60;;
6517;SDS011;3292;48.944;9.240;2022-09-25T03:18:57;19.90;;;15.80;;
6517;SDS011;3292;48.944;9.240;2022-09-25T03:21:24;17.77;;;15.97;;
6517;SDS011;3292;48.944;9.240;2022-09-25T03:23:50;15.37;;;13.73;;
6517;SDS011;3292;48.944;9.240;2022-09-25T03:26:21;18.23;;;16.43;;
6517;SDS011;3292;48.944;9.240;2022-09-25T03:28:48;17.23;;;15.43;;
6517;SDS011;3292;48.944;9.240;2022-09-25T03:31:15;17.73;;;15.93;;
6517;SDS011;3292;48.944;9.240;2022-09-25T03:33:42;19.03;;;17.03;;
6517;SDS011;3292;48.944;9.240;2022-09-25T03:36:12;17.80;;;16.00;;
6517;SDS011;3292;48.944;9.240;2022-09-25T03:38:40;16.63;;;14.93;;
6517;SDS011;3292;48.944;9.240;2022-09-25T03:41:08;17.87;;;15.83;;
6517;SDS011;3292;48.944;9.240;2022-09-25T03:43:36;16.83;;;15.13;;
6517;SDS011;3292;48.944;9.240;2022-09-25T03:46:05;17.33;;;15.73;;
6517;SDS011;3292;48.944;9.240;2022-09-25T03:48:33;22.97;;;17.07;;
6517;SDS011;3292;48.944;9.240;2022-09-25T03:51:00;18.97;;;16.70;;
6517;SDS011;3292;48.944;9.240;2022-09-25T03:53:29;17.83;;;15.43;;
6517;SDS011;3292;48.944;9.240;2022-09-25T03:55:57;18.33;;;16.50;;
6517;SDS011;3292;48.944;9.240;2022-09-25T03:58:24;19.10;;;17.10;;
6517;SDS011;3292;48.944;9.240;2022-09-25T04:00:51;18.00;;;16.10;;
6517;SDS011;3292;48.944;9.240;2022-09-25T04:03:21;18.17;;;16.27;;
6517;SDS011;3292;48.944;9.240;2022-09-25T04:05:48;18.27;;;16.37;;
6517;SDS011;3292;48.944;9.240;2022-09-25T04:08:15;20.40;;;17.40;;
6517;SDS011;3292;48.944;9.240;2022-09-25T04:10:44;18.57;;;16.47;;
6517;SDS011;3292;48.944;9.240;2022-09-25T04:13:11;18.33;;;16.53;;
6517;SDS011;3292;48.944;9.240;2022-09-25T04:15:38;19.40;;;17.33;;
6517;SDS011;3292;48.944;9.240;2022-09-25T04:18:05;21.07;;;18.77;;
6517;SDS011;3292;48.944;9.240;2022-09-25T04:20:32;18.63;;;16.83;;
6517;SDS011;3292;48.944;9.240;2022-09-25T04:22:59;20.10;;;18.10;;
6517;SDS011;3292;48.944;9.240;2022-09-25T04:25:29;22.00;;;19.47;;
6517;SDS011;3292;48.944;9.240;2022-09-25T04:27:58;21.97;;;19.73;;
6517;SDS011;3292;48.944;9.240;2022-09-25T04:30:26;21.17;;;18.67;;
6517;SDS011;3292;48.944;9.240;2022-09-25T04:32:55;20.27;;;18.20;;
6517;SDS011;3292;48.944;9.240;2022-09-25T04:35:40;19.20;;;17.10;;
6517;SDS011;3292;48.944;9.240;2022-09-25T04:38:09;19.10;;;17.03;;
6517;SDS011;3292;48.944;9.240;2022-09-25T04:40:40;19.30;;;17.27;;
6517;SDS011;3292;48.944;9.240;2022-09-25T04:43:11;19.07;;;17.07;;
6517;SDS011;3292;48.944;9.240;2022-09-25T04:45:42;35.47;;;25.93;;
6517;SDS011;3292;48.944;9.240;2022-09-25T04:48:12;46.23;;;30.57;;
6517;SDS011;3292;48.944;9.240;2022-09-25T04:50:45;30.53;;;25.37;;
6517;SDS011;3292;48.944;9.240;2022-09-25T04:53:14;30.70;;;23.07;;
6517;SDS011;3292;48.944;9.240;2022-09-25T04:55:43;28.13;;;22.30;;
6517;SDS011;3292;48.944;9.240;2022-09-25T04:58:15;24.77;;;21.97;;
6517;SDS011;3292;48.944;9.240;2022-09-25T05:00:44;26.60;;;23.40;;
6517;SDS011;3292;48.944;9.240;2022-09-25T05:03:15;29.93;;;26.20;;
6517;SDS011;3292;48.944;9.240;2022-09-25T05:05:45;27.10;;;24.23;;
6517;SDS011;3292;48.944;9.240;2022-09-25T05:08:15;26.43;;;23.27;;
6517;SDS011;3292;48.944;9.240;2022-09-25T05:10:43;27.13;;;24.33;;
6517;SDS011;3292;48.944;9.240;2022-09-25T05:13:18;26.27;;;23.47;;
6517;SDS011;3292;48.944;9.240;2022-09-25T05:15:47;26.83;;;23.93;;
6517;SDS011;3292;48.944;9.240;2022-09-25T05:18:22;23.10;;;20.70;;
6517;SDS011;3292;48.944;9.240;2022-09-25T05:20:52;26.13;;;23.33;;
6517;SDS011;3292;48.944;9.240;2022-09-25T05:23:31;28.30;;;25.30;;
6517;SDS011;3292;48.944;9.240;2022-09-25T05:26:05;29.37;;;26.17;;
6517;SDS011;3292;48.944;9.240;2022-09-25T05:28:40;32.30;;;28.77;;
6517;SDS011;3292;48.944;9.240;2022-09-25T05:31:08;33.30;;;29.70;;
6517;SDS011;3292;48.944;9.240;2022-09-25T05:33:36;29.50;;;26.30;;
6517;SDS011;3292;48.944;9.240;2022-09-25T05:36:04;24.50;;;21.93;;
6517;SDS011;3292;48.944;9.240;2022-09-25T05:38:43;22.30;;;19.27;;
6517;SDS011;3292;48.944;9.240;2022-09-25T05:41:16;19.93;;;17.13;;
6517;SDS011;3292;48.944;9.240;2022-09-25T05:43:53;18.00;;;16.20;;
6517;SDS011;3292;48.944;9.240;2022-09-25T05:46:21;17.27;;;15.57;;
6517;SDS011;3292;48.944;9.240;2022-09-25T05:48:49;15.50;;;13.90;;
6517;SDS011;3292;48.944;9.240;2022-09-25T05:51:19;15.83;;;14.27;;
6517;SDS011;3292;48.944;9.240;2022-09-25T05:53:46;23.23;;;20.73;;
6517;SDS011;3292;48.944;9.240;2022-09-25T05:56:14;21.00;;;18.80;;
6517;SDS011;3292;48.944;9.240;2022-09-25T05:58:42;27.33;;;24.53;;
6517;SDS011;3292;48.944;9.240;2022-09-25T06:01:15;26.00;;;23.23;;
6517;SDS011;3292;48.944;9.240;2022-09-25T06:03:43;20.20;;;18.10;;
6517;SDS011;3292;48.944;9.240;2022-09-25T06:06:20;19.90;;;17.87;;
6517;SDS011;3292;48.944;9.240;2022-09-25T06:08:52;18.63;;;16.03;;
6517;SDS011;3292;48.944;9.240;2022-09-25T06:11:20;17.27;;;15.37;;
6517;SDS011;3292;48.944;9.240;2022-09-25T06:13:52;17.80;;;15.67;;
6517;SDS011;3292;48.944;9.240;2022-09-25T06:16:24;18.30;;;16.50;;
6517;SDS011;3292;48.944;9.240;2022-09-25T06:18:52;17.33;;;15.50;;
6517;SDS011;3292;48.944;9.240;2022-09-25T06:21:20;17.30;;;15.50;;
6517;SDS011;3292;48.944;9.240;2022-09-25T06:23:54;19.20;;;17.30;;
6517;SDS011;3292;48.944;9.240;2022-09-25T06:26:22;19.30;;;17.37;;
6517;SDS011;3292;48.944;9.240;2022-09-25T06:28:52;20.30;;;18.20;;
6517;SDS011;3292;48.944;9.240;2022-09-25T06:31:34;25.80;;;21.47;;
6517;SDS011;3292;48.944;9.240;2022-09-25T06:34:03;38.40;;;31.47;;
6517;SDS011;3292;48.944;9.240;2022-09-25T06:36:42;29.93;;;24.90;;
6517;SDS011;3292;48.944;9.240;2022-09-25T06:39:13;23.90;;;21.30;;
6517;SDS011;3292;48.944;9.240;2022-09-25T06:41:51;22.47;;;20.07;;
6517;SDS011;3292;48.944;9.240;2022-09-25T06:44:19;21.60;;;19.23;;
6517;SDS011;3292;48.944;9.240;2022-09-25T06:46:54;19.57;;;17.57;;
6517;SDS011;3292;48.944;9.240;2022-09-25T06:49:27;18.13;;;16.23;;
6517;SDS011;3292;48.944;9.240;2022-09-25T06:52:00;21.10;;;18.07;;
6517;SDS011;3292;48.944;9.240;2022-09-25T06:54:28;18.80;;;16.87;;
6517;SDS011;3292;48.944;9.240;2022-09-25T06:56:59;18.17;;;16.47;;
6517;SDS011;3292;48.944;9.240;2022-09-25T06:59:30;18.33;;;16.37;;
6517;SDS011;3292;48.944;9.240;2022-09-25T07:02:15;18.13;;;16.33;;
6517;SDS011;3292;48.944;9.240;2022-09-25T07:05:09;18.37;;;16.57;;
6517;SDS011;3292;48.944;9.240;2022-09-25T07:07:42;19.13;;;16.63;;
6517;SDS011;3292;48.944;9.240;2022-09-25T07:10:14;16.37;;;14.67;;
6517;SDS011;3292;48.944;9.240;2022-09-25T07:12:42;17.73;;;15.33;;
6517;SDS011;3292;48.944;9.240;2022-09-25T07:15:12;18.03;;;16.17;;
6517;SDS011;3292;48.944;9.240;2022-09-25T07:17:44;17.93;;;16.10;;
6517;SDS011;3292;48.944;9.240;2022-09-25T07:20:14;16.53;;;14.93;;
6517;SDS011;3292;48.944;9.240;2022-09-25T07:22:41;17.13;;;15.33;;
6517;SDS011;3292;48.944;9.240;2022-09-25T07:25:10;16.90;;;15.20;;
6517;SDS011;3292;48.944;9.240;2022-09-25T07:27:38;15.70;;;14.00;;
6517;SDS011;3292;48.944;9.240;2022-09-25T07:30:08;15.20;;;13.60;;
6517;SDS011;3292;48.944;9.240;2022-09-25T07:32:37;13.67;;;11.90;;
6517;SDS011;3292;48.944;9.240;2022-09-25T07:35:13;14.50;;;12.83;;
6517;SDS011;3292;48.944;9.240;2022-09-25T07:37:39;12.97;;;11.67;;
6517;SDS011;3292;48.944;9.240;2022-09-25T07:40:08;14.47;;;12.97;;
6517;SDS011;3292;48.944;9.240;2022-09-25T07:42:39;12.90;;;11.67;;
6517;SDS011;3292;48.944;9.240;2022-09-25T07:45:08;13.07;;;11.70;;
6517;SDS011;3292;48.944;9.240;2022-09-25T07:47:37;12.97;;;11.77;;
6517;SDS011;3292;48.944;9.240;2022-09-25T07:50:06;16.00;;;11.87;;
6517;SDS011;3292;48.944;9.240;2022-09-25T07:52:35;13.20;;;11.83;;
6517;SDS011;3292;48.944;9.240;2022-09-25T07:55:05;14.37;;;11.83;;
6517;SDS011;3292;48.944;9.240;2022-09-25T07:57:35;12.87;;;11.53;;
6517;SDS011;3292;48.944;9.240;2022-09-25T08:00:02;12.27;;;10.97;;
6517;SDS011;3292;48.944;9.240;2022-09-25T08:02:31;12.07;;;10.87;;
6517;SDS011;3292;48.944;9.240;2022-09-25T08:05:00;12.93;;;11.60;;
6517;SDS011;3292;48.944;9.240;2022-09-25T08:07:27;12.27;;;11.00;;
6517;SDS011;3292;48.944;9.240;2022-09-25T08:09:55;12.77;;;11.30;;
6517;SDS011;3292;48.944;9.240;2022-09-25T08:12:21;12.33;;;11.17;;
6517;SDS011;3292;48.944;9.240;2022-09-25T08:14:49;12.60;;;10.93;;
6517;SDS011;3292;48.944;9.240;2022-09-25T08:17:16;11.97;;;10.77;;
6517;SDS011;3292;48.944;9.240;2022-09-25T08:19:43;11.80;;;10.60;;
6517;SDS011;3292;48.944;9.240;2022-09-25T08:22:10;11.10;;;9.90;;
6517;SDS011;3292;48.944;9.240;2022-09-25T08:24:37;11.83;;;10.73;;
6517;SDS011;3292;48.944;9.240;2022-09-25T08:27:05;11.83;;;10.73;;
6517;SDS011;3292;48.944;9.240;2022-09-25T08:29:32;12.67;;;11.37;;
6517;SDS011;3292;48.944;9.240;2022-09-25T08:32:01;12.77;;;11.43;;
6517;SDS011;3292;48.944;9.240;2022-09-25T08:34:28;12.73;;;11.53;;
6517;SDS011;3292;48.944;9.240;2022-09-25T08:36:55;13.53;;;12.13;;
6517;SDS011;3292;48.944;9.240;2022-09-25T08:39:23;12.80;;;11.60;;
6517;SDS011;3292;48.944;9.240;2022-09-25T08:41:51;12.80;;;11.60;;
6517;SDS011;3292;48.944;9.240;2022-09-25T08:44:25;14.07;;;12.63;;
6517;SDS011;3292;48.944;9.240;2022-09-25T08:46:56;12.97;;;11.77;;
6517;SDS011;3292;48.944;9.240;2022-09-25T08:49:44;14.10;;;12.73;;
6517;SDS011;3292;48.944;9.240;2022-09-25T08:52:21;13.70;;;12.43;;
6517;SDS011;3292;48.944;9.240;2022-09-25T08:54:49;13.80;;;12.40;;
6517;SDS011;3292;48.944;9.240;2022-09-25T08:57:22;14.27;;;12.87;;
6517;SDS011;3292;48.944;9.240;2022-09-25T08:59:56;14.13;;;12.73;;
6517;SDS011;3292;48.944;9.240;2022-09-25T09:02:33;13.40;;;12.00;;
6517;SDS011;3292;48.944;9.240;2022-09-25T09:05:12;14.10;;;11.90;;
6517;SDS011;3292;48.944;9.240;2022-09-25T09:07:51;13.47;;;12.13;;
6517;SDS011;3292;48.944;9.240;2022-09-25T09:10:26;13.20;;;11.80;;
6517;SDS011;3292;48.944;9.240;2022-09-25T09:12:59;13.70;;;12.23;;
6517;SDS011;3292;48.944;9.240;2022-09-25T09:15:39;14.07;;;12.60;;
6517;SDS011;3292;48.944;9.240;2022-09-25T09:18:13;13.03;;;11.57;;
6517;SDS011;3292;48.944;9.240;2022-09-25T09:20:49;13.77;;;11.30;;
6517;SDS011;3292;48.944;9.240;2022-09-25T09:23:19;12.70;;;11.43;;
6517;SDS011;3292;48.944;9.240;2022-09-25T09:25:51;13.40;;;12.10;;
6517;SDS011;3292;48.944;9.240;2022-09-25T09:31:28;15.10;;;11.23;;
6517;SDS011;3292;48.944;9.240;2022-09-25T09:34:07;13.40;;;12.00;;
6517;SDS011;3292;48.944;9.240;2022-09-25T09:36:51;12.43;;;11.13;;
6517;SDS011;3292;48.944;9.240;2022-09-25T09:39:31;12.70;;;11.43;;
6517;SDS011;3292;48.944;9.240;2022-09-25T09:42:05;13.93;;;12.53;;
6517;SDS011;3292;48.944;9.240;2022-09-25T09:44:44;13.67;;;12.33;;
6517;SDS011;3292;48.944;9.240;2022-09-25T09:47:28;13.53;;;12.23;;
6517;SDS011;3292;48.944;9.240;2022-09-25T09:50:12;13.87;;;12.57;;
6517;SDS011;3292;48.944;9.240;2022-09-25T09:52:46;14.20;;;12.70;;
6517;SDS011;3292;48.944;9.240;2022-09-25T09:55:19;14.27;;;12.60;;
6517;SDS011;3292;48.944;9.240;2022-09-25T09:57:51;14.10;;;12.60;;
6517;SDS011;3292;48.944;9.240;2022-09-25T10:00:21;14.47;;;13.03;;
6517;SDS011;3292;48.944;9.240;2022-09-25T10:02:51;14.13;;;12.70;;
6517;SDS011;3292;48.944;9.240;2022-09-25T10:05:24;14.40;;;12.97;;
6517;SDS011;3292;48.944;9.240;2022-09-25T10:07:55;14.17;;;12.87;;
6517;SDS011;3292;48.944;9.240;2022-09-25T10:10:27;13.30;;;11.97;;
6517;SDS011;3292;48.944;9.240;2022-09-25T10:12:59;14.00;;;12.70;;
6517;SDS011;3292;48.944;9.240;2022-09-25T10:15:31;13.70;;;12.40;;
6517;SDS011;3292;48.944;9.240;2022-09-25T10:18:07;13.20;;;11.97;;
6517;SDS011;3292;48.944;9.240;2022-09-25T10:20:37;13.93;;;12.50;;
6517;SDS011;3292;48.944;9.240;2022-09-25T10:23:12;13.77;;;11.70;;
6517;SDS011;3292;48.944;9.240;2022-09-25T10:25:47;12.33;;;11.20;;
6517;SDS011;3292;48.944;9.240;2022-09-25T10:28:20;14.60;;;12.03;;
6517;SDS011;3292;48.944;9.240;2022-09-25T10:30:50;12.83;;;11.63;;
6517;SDS011;3292;48.944;9.240;2022-09-25T10:33:23;12.43;;;11.10;;
6517;SDS011;3292;48.944;9.240;2022-09-25T10:35:52;12.80;;;11.53;;
6517;SDS011;3292;48.944;9.240;2022-09-25T10:38:23;12.93;;;11.73;;
6517;SDS011;3292;48.944;9.240;2022-09-25T10:41:01;11.90;;;10.70;;
6517;SDS011;3292;48.944;9.240;2022-09-25T10:43:30;11.30;;;10.23;;
6517;SDS011;3292;48.944;9.240;2022-09-25T10:46:04;11.37;;;10.23;;
6517;SDS011;3292;48.944;9.240;2022-09-25T10:48:37;11.13;;;10.03;;
6517;SDS011;3292;48.944;9.240;2022-09-25T10:51:23;10.03;;;9.03;;
6517;SDS011;3292;48.944;9.240;2022-09-25T10:53:51;9.30;;;8.40;;
6517;SDS011;3292;48.944;9.240;2022-09-25T10:56:35;8.00;;;7.30;;
6517;SDS011;3292;48.944;9.240;2022-09-25T10:59:07;8.60;;;7.30;;
6517;SDS011;3292;48.944;9.240;2022-09-25T11:01:39;8.37;;;7.57;;
6517;SDS011;3292;48.944;9.240;2022-09-25T11:04:12;9.73;;;8.80;;
6517;SDS011;3292;48.944;9.240;2022-09-25T11:06:46;9.10;;;8.30;;
6517;SDS011;3292;48.944;9.240;2022-09-25T11:09:16;10.17;;;9.20;;
6517;SDS011;3292;48.944;9.240;2022-09-25T11:11:45;10.20;;;9.20;;
6517;SDS011;3292;48.944;9.240;2022-09-25T11:14:16;10.07;;;9.07;;
6517;SDS011;3292;48.944;9.240;2022-09-25T11:16:47;10.70;;;9.20;;
6517;SDS011;3292;48.944;9.240;2022-09-25T11:19:24;11.07;;;9.70;;
6517;SDS011;3292;48.944;9.240;2022-09-25T11:21:56;10.83;;;9.73;;
6517;SDS011;3292;48.944;9.240;2022-09-25T11:24:31;10.90;;;9.47;;
6517;SDS011;3292;48.944;9.240;2022-09-25T11:27:09;11.77;;;9.67;;
6517;SDS011;3292;48.944;9.240;2022-09-25T11:29:42;13.17;;;10.40;;
6517;SDS011;3292;48.944;9.240;2022-09-25T11:32:19;11.47;;;10.37;;
6517;SDS011;3292;48.944;9.240;2022-09-25T11:35:00;13.50;;;12.10;;
6517;SDS011;3292;48.944;9.240;2022-09-25T11:37:42;12.90;;;11.60;;
6517;SDS011;3292;48.944;9.240;2022-09-25T11:40:29;13.37;;;12.03;;
6517;SDS011;3292;48.944;9.240;2022-09-25T11:43:24;13.53;;;12.13;;
6517;SDS011;3292;48.944;9.240;2022-09-25T11:46:17;13.17;;;11.77;;
6517;SDS011;3292;48.944;9.240;2022-09-25T11:48:51;11.77;;;10.57;;
6517;SDS011;3292;48.944;9.240;2022-09-25T11:51:32;12.40;;;11.13;;
6517;SDS011;3292;48.944;9.240;2022-09-25T11:54:17;11.73;;;10.53;;
6517;SDS011;3292;48.944;9.240;2022-09-25T11:56:52;11.13;;;10.03;;
6517;SDS011;3292;48.944;9.240;2022-09-25T11:59:31;10.23;;;9.33;;
6517;SDS011;3292;48.944;9.240;2022-09-25T12:02:11;9.70;;;8.80;;
6517;SDS011;3292;48.944;9.240;2022-09-25T12:04:52;10.00;;;9.00;;
6517;SDS011;3292;48.944;9.240;2022-09-25T12:07:46;10.37;;;8.80;;
6517;SDS011;3292;48.944;9.240;2022-09-25T12:10:30;9.93;;;8.93;;
6517;SDS011;3292;48.944;9.240;2022-09-25T12:13:04;10.43;;;9.47;;
6517;SDS011;3292;48.944;9.240;2022-09-25T12:15:44;10.23;;;9.23;;
6517;SDS011;3292;48.944;9.240;2022-09-25T12:18:18;9.30;;;8.50;;
6517;SDS011;3292;48.944;9.240;2022-09-25T12:20:56;10.03;;;9.03;;
6517;SDS011;3292;48.944;9.240;2022-09-25T12:23:30;8.80;;;7.90;;
6517;SDS011;3292;48.944;9.240;2022-09-25T12:26:01;8.63;;;7.83;;
6517;SDS011;3292;48.944;9.240;2022-09-25T12:28:41;6.70;;;6.00;;
6517;SDS011;3292;48.944;9.240;2022-09-25T12:31:19;7.10;;;6.40;;
6517;SDS011;3292;48.944;9.240;2022-09-25T12:33:54;7.53;;;6.23;;
6517;SDS011;3292;48.944;9.240;2022-09-25T12:36:30;5.17;;;4.67;;
6517;SDS011;3292;48.944;9.240;2022-09-25T12:39:03;6.53;;;4.63;;
6517;SDS011;3292;48.944;9.240;2022-09-25T12:41:46;5.43;;;4.97;;
6517;SDS011;3292;48.944;9.240;2022-09-25T12:44:17;6.10;;;4.67;;
6517;SDS011;3292;48.944;9.240;2022-09-25T12:46:50;5.63;;;4.93;;
6517;SDS011;3292;48.944;9.240;2022-09-25T12:49:22;3.87;;;3.57;;
6517;SDS011;3292;48.944;9.240;2022-09-25T12:51:54;4.63;;;3.67;;
6517;SDS011;3292;48.944;9.240;2022-09-25T12:54:29;4.00;;;3.70;;
6517;SDS011;3292;48.944;9.240;2022-09-25T12:56:59;4.13;;;3.17;;
6517;SDS011;3292;48.944;9.240;2022-09-25T12:59:31;3.20;;;3.00;;
6517;SDS011;3292;48.944;9.240;2022-09-25T13:02:07;3.47;;;3.17;;
6517;SDS011;3292;48.944;9.240;2022-09-25T13:04:43;3.07;;;2.83;;
6517;SDS011;3292;48.944;9.240;2022-09-25T13:07:20;3.43;;;3.13;;
6517;SDS011;3292;48.944;9.240;2022-09-25T13:09:53;3.53;;;3.20;;
6517;SDS011;3292;48.944;9.240;2022-09-25T13:12:23;3.17;;;2.87;;
6517;SDS011;3292;48.944;9.240;2022-09-25T13:14:57;3.60;;;3.30;;
6517;SDS011;3292;48.944;9.240;2022-09-25T13:17:28;3.70;;;3.40;;
6517;SDS011;3292;48.944;9.240;2022-09-25T13:23:08;4.20;;;3.80;;
6517;SDS011;3292;48.944;9.240;2022-09-25T13:25:42;3.60;;;3.30;;
6517;SDS011;3292;48.944;9.240;2022-09-25T13:28:15;3.37;;;2.90;;
6517;SDS011;3292;48.944;9.240;2022-09-25T13:30:58;3.03;;;2.83;;
6517;SDS011;3292;48.944;9.240;2022-09-25T13:33:28;2.80;;;2.60;;
6517;SDS011;3292;48.944;9.240;2022-09-25T13:36:09;2.87;;;2.67;;
6517;SDS011;3292;48.944;9.240;2022-09-25T13:38:49;2.90;;;2.70;;
6517;SDS011;3292;48.944;9.240;2022-09-25T13:41:37;3.15;;;2.90;;
6517;SDS011;3292;48.944;9.240;2022-09-25T13:50:28;2.87;;;2.67;;
6517;SDS011;3292;48.944;9.240;2022-09-25T13:53:01;3.10;;;2.90;;
6517;SDS011;3292;48.944;9.240;2022-09-25T13:59:02;3.30;;;3.00;;
6517;SDS011;3292;48.944;9.240;2022-09-25T14:01:45;3.50;;;3.20;;
6517;SDS011;3292;48.944;9.240;2022-09-25T14:04:21;3.47;;;3.27;;
6517;SDS011;3292;48.944;9.240;2022-09-25T14:07:16;3.43;;;3.13;;
6517;SDS011;3292;48.944;9.240;2022-09-25T14:09:47;3.50;;;3.20;;
6517;SDS011;3292;48.944;9.240;2022-09-25T14:12:22;4.00;;;3.67;;
6517;SDS011;3292;48.944;9.240;2022-09-25T14:14:54;4.37;;;3.97;;
6517;SDS011;3292;48.944;9.240;2022-09-25T14:17:24;3.50;;;3.20;;
6517;SDS011;3292;48.944;9.240;2022-09-25T14:19:56;4.03;;;3.63;;
6517;SDS011;3292;48.944;9.240;2022-09-25T14:22:28;3.70;;;3.40;;
6517;SDS011;3292;48.944;9.240;2022-09-25T14:25:01;4.83;;;4.13;;
6517;SDS011;3292;48.944;9.240;2022-09-25T14:27:28;4.10;;;3.80;;
6517;SDS011;3292;48.944;9.240;2022-09-25T14:30:05;4.97;;;4.47;;
6517;SDS011;3292;48.944;9.240;2022-09-25T14:32:40;3.30;;;3.07;;
6517;SDS011;3292;48.944;9.240;2022-09-25T14:35:19;3.27;;;2.97;;
6517;SDS011;3292;48.944;9.240;2022-09-25T14:40:49;3.67;;;3.37;;
6517;SDS011;3292;48.944;9.240;2022-09-25T14:43:33;3.83;;;3.43;;
6517;SDS011;3292;48.944;9.240;2022-09-25T14:46:13;3.63;;;3.33;;
6517;SDS011;3292;48.944;9.240;2022-09-25T14:48:45;4.33;;;3.20;;
6517;SDS011;3292;48.944;9.240;2022-09-25T14:51:19;4.47;;;4.07;;
6517;SDS011;3292;48.944;9.240;2022-09-25T14:53:50;4.23;;;3.73;;
6517;SDS011;3292;48.944;9.240;2022-09-25T14:56:19;4.23;;;3.93;;
6517;SDS011;3292;48.944;9.240;2022-09-25T14:58:47;4.27;;;3.23;;
6517;SDS011;3292;48.944;9.240;2022-09-25T15:01:21;2.90;;;2.70;;
6517;SDS011;3292;48.944;9.240;2022-09-25T15:03:52;3.00;;;2.80;;
6517;SDS011;3292;48.944;9.240;2022-09-25T15:06:26;2.90;;;2.70;;
6517;SDS011;3292;48.944;9.240;2022-09-25T15:08:55;3.30;;;3.00;;
6517;SDS011;3292;48.944;9.240;2022-09-25T15:11:25;3.80;;;3.27;;
6517;SDS011;3292;48.944;9.240;2022-09-25T15:13:53;3.27;;;3.00;;
6517;SDS011;3292;48.944;9.240;2022-09-25T15:16:22;3.50;;;3.23;;
6517;SDS011;3292;48.944;9.240;2022-09-25T15:19:15;3.97;;;3.67;;
6517;SDS011;3292;48.944;9.240;2022-09-25T15:21:45;3.97;;;3.67;;
6517;SDS011;3292;48.944;9.240;2022-09-25T15:24:16;4.00;;;3.70;;
6517;SDS011;3292;48.944;9.240;2022-09-25T15:26:47;4.30;;;4.00;;
6517;SDS011;3292;48.944;9.240;2022-09-25T15:29:17;4.73;;;4.33;;
6517;SDS011;3292;48.944;9.240;2022-09-25T15:31:48;3.40;;;3.20;;
6517;SDS011;3292;48.944;9.240;2022-09-25T15:34:19;4.33;;;3.60;;
6517;SDS011;3292;48.944;9.240;2022-09-25T15:36:48;3.30;;;3.00;;
6517;SDS011;3292;48.944;9.240;2022-09-25T15:39:16;2.73;;;2.53;;
6517;SDS011;3292;48.944;9.240;2022-09-25T15:41:47;2.97;;;2.67;;
6517;SDS011;3292;48.944;9.240;2022-09-25T15:44:16;3.20;;;2.90;;
6517;SDS011;3292;48.944;9.240;2022-09-25T15:46:46;3.33;;;2.73;;
6517;SDS011;3292;48.944;9.240;2022-09-25T15:49:17;2.90;;;2.70;;
6517;SDS011;3292;48.944;9.240;2022-09-25T15:51:48;4.40;;;3.30;;
6517;SDS011;3292;48.944;9.240;2022-09-25T15:54:28;3.47;;;3.17;;
6517;SDS011;3292;48.944;9.240;2022-09-25T15:56:58;3.37;;;3.17;;